createdAt,value
2022-11-03T00:00:05.680Z,8.20
2022-11-03T00:02:58.537Z,8.10
2022-11-03T00:06:12.949Z,8.20
2022-11-03T00:09:10.422Z,8.30
2022-11-03T00:12:01.315Z,8.50
2022-11-03T00:14:49.848Z,8.40
2022-11-03T00:17:38.349Z,8.10
2022-11-03T00:20:26.972Z,8.30
2022-11-03T00:23:17.690Z,8.50
2022-11-03T00:26:36.698Z,8.50
2022-11-03T00:29:27.380Z,8.50
2022-11-03T00:32:17.918Z,8.30
2022-11-03T00:35:12.742Z,8.30
2022-11-03T00:38:01.177Z,8.40
2022-11-03T00:41:03.081Z,8.40
2022-11-03T00:43:56.552Z,8.20
2022-11-03T00:46:47.125Z,8.10
2022-11-03T00:49:44.026Z,8.00
2022-11-03T00:52:35.259Z,7.80
2022-11-03T00:55:23.457Z,7.90
2022-11-03T00:58:14.544Z,7.90
2022-11-03T01:01:08.514Z,7.80
2022-11-03T01:04:17.371Z,7.70
2022-11-03T01:07:06.826Z,7.80
2022-11-03T01:09:55.284Z,7.80
2022-11-03T01:12:46.005Z,7.60
2022-11-03T01:15:37.406Z,7.60
2022-11-03T01:18:28.714Z,7.90
2022-11-03T01:21:23.950Z,7.90
2022-11-03T01:24:14.812Z,7.80
2022-11-03T01:27:08.560Z,7.60
2022-11-03T01:30:00.071Z,7.40
2022-11-03T01:33:00.480Z,7.40
2022-11-03T01:35:56.746Z,7.50
2022-11-03T01:38:47.736Z,7.50
2022-11-03T01:41:35.918Z,7.70
2022-11-03T01:44:28.613Z,7.60
2022-11-03T01:47:32.816Z,7.80
2022-11-03T01:50:23.456Z,7.80
2022-11-03T01:53:25.330Z,7.70
2022-11-03T01:56:18.162Z,7.80
2022-11-03T01:59:10.855Z,7.90
2022-11-03T02:01:59.305Z,7.90
2022-11-03T02:04:50.720Z,7.90
2022-11-03T02:08:03.308Z,7.80
2022-11-03T02:10:52.755Z,7.80
2022-11-03T02:13:43.566Z,7.80
2022-11-03T02:16:33.489Z,7.70
2022-11-03T02:19:55.991Z,7.60
2022-11-03T02:23:10.227Z,7.50
2022-11-03T02:26:00.220Z,7.40
2022-11-03T02:28:49.311Z,7.40
2022-11-03T02:31:47.679Z,7.40
2022-11-03T02:35:15.789Z,7.30
2022-11-03T02:38:10.611Z,7.40
2022-11-03T02:41:06.151Z,7.50
2022-11-03T02:43:59.565Z,7.60
2022-11-03T02:47:03.332Z,7.50
2022-11-03T02:49:58.840Z,7.30
2022-11-03T02:52:55.800Z,7.10
2022-11-03T02:56:11.457Z,7.00
2022-11-03T02:59:10.077Z,7.00
2022-11-03T03:02:14.059Z,7.20
2022-11-03T03:05:12.072Z,7.40
2022-11-03T03:08:09.403Z,7.50
2022-11-03T03:11:05.383Z,7.30
2022-11-03T03:14:00.109Z,7.30
2022-11-03T03:17:28.197Z,7.00
2022-11-03T03:20:43.506Z,7.00
2022-11-03T03:23:48.305Z,7.00
2022-11-03T03:26:43.030Z,7.00
2022-11-03T03:29:48.439Z,7.10
2022-11-03T03:32:49.819Z,6.70
2022-11-03T03:35:43.654Z,6.80
2022-11-03T03:38:41.933Z,6.80
2022-11-03T03:41:32.877Z,6.50
2022-11-03T03:44:23.680Z,6.60
2022-11-03T03:47:32.652Z,6.70
2022-11-03T03:50:23.301Z,6.40
2022-11-03T03:53:30.715Z,6.50
2022-11-03T03:56:26.596Z,6.40
2022-11-03T03:59:15.005Z,6.40
2022-11-03T04:02:18.708Z,6.20
2022-11-03T04:05:17.751Z,6.10
2022-11-03T04:08:07.924Z,6.00
2022-11-03T04:11:17.272Z,6.20
2022-11-03T04:14:31.127Z,6.00
2022-11-03T04:17:41.485Z,6.20
2022-11-03T04:20:51.650Z,6.20
2022-11-03T04:23:39.867Z,6.10
2022-11-03T04:26:29.412Z,5.90
2022-11-03T04:29:22.794Z,6.00
2022-11-03T04:32:18.305Z,6.00
2022-11-03T04:35:39.294Z,6.10
2022-11-03T04:38:29.818Z,6.20
2022-11-03T04:41:27.128Z,6.20
2022-11-03T04:44:19.194Z,6.10
2022-11-03T04:47:13.813Z,6.30
2022-11-03T04:50:02.420Z,6.40
2022-11-03T04:52:58.926Z,6.30
2022-11-03T04:55:50.643Z,6.50
2022-11-03T04:58:42.132Z,6.30
2022-11-03T05:01:35.321Z,6.40
2022-11-03T05:04:30.446Z,6.30
2022-11-03T05:07:36.265Z,6.40
2022-11-03T05:10:29.940Z,6.30
2022-11-03T05:13:25.919Z,6.20
2022-11-03T05:16:14.905Z,6.30
2022-11-03T05:19:03.472Z,6.30
2022-11-03T05:21:53.438Z,6.40
2022-11-03T05:24:42.790Z,6.60
2022-11-03T05:27:31.137Z,6.50
2022-11-03T05:30:19.717Z,6.50
2022-11-03T05:33:31.248Z,6.60
2022-11-03T05:36:25.553Z,6.60
2022-11-03T05:39:35.905Z,6.60
2022-11-03T05:42:24.000Z,6.40
2022-11-03T05:45:33.511Z,6.50
2022-11-03T05:48:45.051Z,6.40
2022-11-03T05:51:37.201Z,6.20
2022-11-03T05:54:32.989Z,6.30
2022-11-03T05:57:21.195Z,6.40
2022-11-03T06:00:48.052Z,6.50
2022-11-03T06:03:43.291Z,6.70
2022-11-03T06:06:44.846Z,6.90
2022-11-03T06:09:36.997Z,6.80
2022-11-03T06:12:29.519Z,6.70
2022-11-03T06:15:47.878Z,6.60
2022-11-03T06:18:40.733Z,6.40
2022-11-03T06:21:29.486Z,6.60
2022-11-03T06:24:32.658Z,6.80
2022-11-03T06:27:26.819Z,6.70
2022-11-03T06:30:26.757Z,6.70
2022-11-03T06:33:40.039Z,6.70
2022-11-03T06:41:13.882Z,6.60
2022-11-03T06:45:00.207Z,6.70
2022-11-03T06:48:18.080Z,6.80
2022-11-03T06:51:27.983Z,6.80
2022-11-03T07:02:44.405Z,7.30
2022-11-03T07:21:54.920Z,8.70
2022-11-03T07:24:47.060Z,9.20
2022-11-03T07:28:09.861Z,9.30
2022-11-03T07:39:44.054Z,10.50
2022-11-03T07:43:17.286Z,11.50
2022-11-03T07:46:18.729Z,11.90
2022-11-03T07:49:32.635Z,11.80
2022-11-03T07:52:53.799Z,12.10
2022-11-03T07:56:02.035Z,12.60
2022-11-03T08:00:10.895Z,13.20
2022-11-03T08:04:32.684Z,14.50
2022-11-03T08:07:38.527Z,15.50
2022-11-03T08:11:01.968Z,15.70
2022-11-03T08:14:03.633Z,15.80
2022-11-03T08:21:05.429Z,15.90
2022-11-03T08:24:17.328Z,16.50
2022-11-03T08:31:51.892Z,18.10
2022-11-03T09:13:47.560Z,22.70
2022-11-03T09:23:37.555Z,18.60
2022-11-03T09:25:24.930Z,16.90
2022-11-03T09:37:48.540Z,15.80
2022-11-03T09:44:36.121Z,19.10
2022-11-03T10:59:19.363Z,17.10
2022-11-03T11:03:25.560Z,17.20
2022-11-03T11:07:43.142Z,17.30
2022-11-03T11:20:38.448Z,15.60
2022-11-03T11:29:18.369Z,15.40
2022-11-03T11:33:43.891Z,15.80
2022-11-03T11:36:43.859Z,16.20
2022-11-03T11:40:33.659Z,16.80
2022-11-03T11:47:36.710Z,16.20
2022-11-03T11:50:49.847Z,15.80
2022-11-03T11:57:35.492Z,15.60
2022-11-03T12:05:28.481Z,15.30
2022-11-03T12:17:50.950Z,15.80
2022-11-03T12:25:40.853Z,13.70
2022-11-03T12:32:40.299Z,13.10
2022-11-03T12:42:02.459Z,13.40
2022-11-03T12:48:59.621Z,14.20
2022-11-03T12:55:56.928Z,13.90
2022-11-03T13:03:04.625Z,14.00
2022-11-03T13:09:51.240Z,13.60
2022-11-03T13:20:04.035Z,12.70
2022-11-03T13:22:59.384Z,12.70
2022-11-03T13:26:10.413Z,13.10
2022-11-03T13:29:41.244Z,12.90
2022-11-03T13:33:22.055Z,12.80
2022-11-03T13:36:30.753Z,13.20
2022-11-03T13:39:26.665Z,12.90
2022-11-03T13:42:17.710Z,12.70
2022-11-03T14:00:25.504Z,13.50
2022-11-03T14:07:09.116Z,13.20
2022-11-03T14:17:56.946Z,13.80
2022-11-03T14:21:18.479Z,14.00
2022-11-03T14:24:40.579Z,13.60
2022-11-03T14:27:35.626Z,13.50
2022-11-03T14:30:37.679Z,13.40
2022-11-03T14:37:05.151Z,13.50
2022-11-03T14:44:13.753Z,13.80
2022-11-03T14:47:36.293Z,13.60
2022-11-03T15:03:19.160Z,13.50
2022-11-03T15:06:15.629Z,13.10
2022-11-03T15:09:34.716Z,13.20
2022-11-03T15:12:28.286Z,13.40
2022-11-03T15:16:49.356Z,12.90
2022-11-03T15:26:47.696Z,13.10
2022-11-03T15:34:50.857Z,12.60
2022-11-03T15:38:01.813Z,12.40
2022-11-03T15:45:11.671Z,12.20
2022-11-03T15:49:18.103Z,12.40
2022-11-03T15:52:57.460Z,12.40
2022-11-03T15:56:28.654Z,12.50
2022-11-03T15:59:19.466Z,12.50
2022-11-03T16:02:56.975Z,12.50
2022-11-03T16:35:41.515Z,12.90
2022-11-03T16:38:29.649Z,13.00
2022-11-03T16:41:17.976Z,13.00
2022-11-03T16:44:06.220Z,13.20
2022-11-03T16:47:00.032Z,13.20
2022-11-03T16:49:48.043Z,13.30
2022-11-03T16:52:36.698Z,13.40
2022-11-03T16:55:24.851Z,13.20
2022-11-03T16:58:13.081Z,13.10
2022-11-03T17:01:01.281Z,13.10
2022-11-03T17:03:51.925Z,13.20
2022-11-03T17:06:39.933Z,13.20
2022-11-03T17:09:28.528Z,13.10
2022-11-03T17:12:20.280Z,13.00
2022-11-03T17:18:36.536Z,12.90
2022-11-03T17:21:28.689Z,12.60
2022-11-03T17:24:20.828Z,12.30
2022-11-03T17:27:28.162Z,12.10
2022-11-03T17:30:29.382Z,12.60
2022-11-03T17:33:20.111Z,12.70
2022-11-03T17:36:14.838Z,12.90
2022-11-03T17:39:09.763Z,12.90
2022-11-03T17:42:15.688Z,12.90
2022-11-03T17:45:10.446Z,12.90
2022-11-03T17:48:04.037Z,12.90
2022-11-03T17:50:55.824Z,12.90
2022-11-03T17:53:53.143Z,12.80
2022-11-03T17:56:49.879Z,12.80
2022-11-03T17:59:40.807Z,12.80
2022-11-03T18:02:40.704Z,12.70
2022-11-03T18:05:33.800Z,12.70
2022-11-03T18:08:24.545Z,12.80
2022-11-03T18:11:36.521Z,12.50
2022-11-03T18:14:49.472Z,12.40
2022-11-03T18:17:40.337Z,12.20
2022-11-03T18:20:52.842Z,12.20
2022-11-03T18:23:41.819Z,12.00
2022-11-03T18:26:33.334Z,12.00
2022-11-03T18:29:22.094Z,12.10
2022-11-03T18:32:19.688Z,12.20
2022-11-03T18:35:16.588Z,12.10
2022-11-03T18:38:11.708Z,12.10
2022-11-03T18:41:02.828Z,12.10
2022-11-03T18:43:54.231Z,12.00
2022-11-03T18:46:44.991Z,12.10
2022-11-03T18:49:44.155Z,12.10
2022-11-03T18:52:40.732Z,12.10
2022-11-03T18:55:38.674Z,12.20
2022-11-03T18:58:36.767Z,12.10
2022-11-03T19:01:28.690Z,11.80
2022-11-03T19:04:28.201Z,11.90
2022-11-03T19:17:22.476Z,11.10
2022-11-03T19:20:12.568Z,11.10
2022-11-03T19:23:00.871Z,10.80
2022-11-03T19:25:50.131Z,10.80
2022-11-03T19:28:40.451Z,10.90
2022-11-03T19:31:57.536Z,10.80
2022-11-03T19:35:15.872Z,10.70
2022-11-03T19:38:21.203Z,10.80
2022-11-03T19:41:38.250Z,10.90
2022-11-03T19:44:31.866Z,11.00
2022-11-03T19:47:25.005Z,11.20
2022-11-03T19:50:29.803Z,11.40
2022-11-03T19:53:28.078Z,11.70
2022-11-03T19:56:17.295Z,11.70
2022-11-03T19:59:18.689Z,11.60
2022-11-03T20:02:16.185Z,11.60
2022-11-03T20:05:10.544Z,11.60
2022-11-03T20:08:06.633Z,11.50
2022-11-03T20:10:55.220Z,11.60
2022-11-03T20:13:45.828Z,11.50
2022-11-03T20:16:34.194Z,11.30
2022-11-03T20:19:28.607Z,11.40
2022-11-03T20:22:28.717Z,11.40
2022-11-03T20:25:31.786Z,11.20
2022-11-03T20:28:28.725Z,11.30
2022-11-03T20:31:21.604Z,11.30
2022-11-03T20:34:16.475Z,11.20
2022-11-03T20:37:19.470Z,11.20
2022-11-03T20:40:19.877Z,11.10
2022-11-03T20:43:26.769Z,11.10
2022-11-03T20:46:33.887Z,11.10
2022-11-03T20:49:22.327Z,11.00
2022-11-03T20:52:17.087Z,10.80
2022-11-03T20:55:25.320Z,10.80
2022-11-03T20:58:18.626Z,11.00
2022-11-03T21:01:21.183Z,11.10
2022-11-03T21:04:21.807Z,11.10
2022-11-03T21:07:15.307Z,11.00
2022-11-03T21:10:05.953Z,11.10
2022-11-03T21:12:54.336Z,11.20
2022-11-03T21:16:23.648Z,11.10
2022-11-03T21:19:38.767Z,11.10
2022-11-03T21:22:52.357Z,11.50
2022-11-03T21:25:40.984Z,11.20
2022-11-03T21:28:29.023Z,11.10
2022-11-03T21:31:17.034Z,11.00
2022-11-03T21:34:07.957Z,11.00
2022-11-03T21:36:57.574Z,10.90
2022-11-03T21:39:45.712Z,11.00
2022-11-03T21:42:57.798Z,11.00
2022-11-03T21:45:51.060Z,11.20
2022-11-03T21:48:58.183Z,11.00
2022-11-03T21:51:46.285Z,11.40
2022-11-03T21:54:34.445Z,11.50
2022-11-03T21:57:22.773Z,11.30
2022-11-03T22:00:12.286Z,11.20
2022-11-03T22:03:01.821Z,11.00
2022-11-03T22:05:53.114Z,11.00
2022-11-03T22:08:44.462Z,11.00
2022-11-03T22:11:33.096Z,11.00
2022-11-03T22:14:26.886Z,11.10
2022-11-03T22:17:17.363Z,11.10
2022-11-03T22:20:30.484Z,11.10
2022-11-03T22:23:36.897Z,11.20
2022-11-03T22:27:06.710Z,11.10
2022-11-03T22:30:13.360Z,11.20
2022-11-03T22:33:06.844Z,11.20
2022-11-03T22:36:23.172Z,11.20
2022-11-03T22:39:30.563Z,11.20
2022-11-03T22:45:52.182Z,11.20
2022-11-03T22:48:40.787Z,11.20
2022-11-03T22:51:35.225Z,11.20
2022-11-03T22:54:23.891Z,11.20
2022-11-03T22:57:13.556Z,11.20
2022-11-03T23:00:06.339Z,11.30
2022-11-03T23:06:31.135Z,11.30
2022-11-03T23:12:24.207Z,11.10
2022-11-03T23:15:35.911Z,11.10
2022-11-03T23:19:07.578Z,11.00
2022-11-03T23:22:04.110Z,11.00
2022-11-03T23:25:34.672Z,11.00
2022-11-03T23:29:02.121Z,10.90
2022-11-03T23:36:08.303Z,10.80
2022-11-03T23:41:59.986Z,10.80
2022-11-03T23:45:45.076Z,10.90
2022-11-03T23:52:44.760Z,10.90
2022-11-03T23:59:19.769Z,10.90
